Fort Donelson National Milit, Tennessee
Current Conditions -  °F | °C
As of 4:58 PM on Saturday 20 Dec 2014 (Local Time) from KHOP Reporting Station
Clear Clear  
Wind Chill: 37°   Ceiling: Unl
Heat Index: 37°   Visibility: 10mi
Dew Point: 28°   Wind: 2mph
Humidity: 68%   Direction: 10°N
Pressure: 30.26"   Gusts: NA
Location:  36.5154°N, 87.9324°W
Report Text: KHOP 202258Z AUTO 01002KT 10SM CLR 03/M02 A3026 RMK AO2 SLP253 T00301024
Loading
Personal Weather Stations






























Interactive Weather Map New forecast layout! Learn more

10-Day Weather Forecast

Advertisements
Track Severe Weather on mobile